Terminal Aerodrome Forecast
Issued by NWS

Home | Current Version | Previous Version | Text Only | Print | Product List | Glossary On
Versions: 1 2 3 4 5 6 7 8 9 10 11 12
000
FTUS44 KLZK 201100
TAFPBF
TAF
KPBF 201140Z 2012/2112 VRB03KT P6SM SCT120 SCT250
     FM201400 25004KT P6SM SCT060 BKN120
     FM210100 00000KT P6SM SCT120 SCT250
      TEMPO 2108/2112 4SM BR=

USA.gov is the U.S. government's official web portal to all federal, state and local government web resources and services.